createdAt,value
2018-04-25T00:00:38.818Z,11.74
2018-04-25T00:01:38.812Z,11.74
2018-04-25T00:02:38.816Z,11.71
2018-04-25T00:03:38.800Z,11.74
2018-04-25T00:04:38.808Z,11.67
2018-04-25T00:05:38.811Z,11.64
2018-04-25T00:06:38.800Z,11.67
2018-04-25T00:07:38.796Z,11.72
2018-04-25T00:08:38.788Z,11.71
2018-04-25T00:09:38.791Z,11.82
2018-04-25T00:10:38.784Z,11.83
2018-04-25T00:11:38.779Z,11.87
2018-04-25T00:12:38.780Z,11.77
2018-04-25T00:13:38.769Z,11.77
2018-04-25T00:14:38.787Z,11.74
2018-04-25T00:15:38.769Z,11.72
2018-04-25T00:16:38.756Z,11.64
2018-04-25T00:17:38.755Z,11.59
2018-04-25T00:18:38.741Z,11.61
2018-04-25T00:19:38.742Z,11.57
2018-04-25T00:20:38.743Z,11.67
2018-04-25T00:21:38.752Z,11.57
2018-04-25T00:22:38.728Z,11.56
2018-04-25T00:23:38.722Z,11.53
2018-04-25T00:24:38.722Z,11.46
2018-04-25T00:25:38.719Z,11.41
2018-04-25T00:26:38.710Z,11.36
2018-04-25T00:27:38.707Z,11.29
2018-04-25T00:28:38.703Z,11.32
2018-04-25T00:29:38.697Z,11.29
2018-04-25T00:30:38.696Z,11.32
2018-04-25T00:31:38.683Z,11.31
2018-04-25T00:32:38.682Z,11.32
2018-04-25T00:33:38.673Z,11.36
2018-04-25T00:34:38.673Z,11.44
2018-04-25T00:35:38.673Z,11.43
2018-04-25T00:36:38.674Z,11.38
2018-04-25T00:37:38.658Z,11.36
2018-04-25T00:38:38.652Z,11.29
2018-04-25T00:39:38.649Z,11.31
2018-04-25T00:40:38.646Z,11.32
2018-04-25T00:41:38.650Z,11.27
2018-04-25T00:42:38.642Z,11.13
2018-04-25T00:43:38.637Z,11.09
2018-04-25T00:44:38.628Z,11.14
2018-04-25T00:45:38.649Z,11.09
2018-04-25T00:46:38.644Z,11.09
2018-04-25T00:47:38.614Z,11.07
2018-04-25T00:48:38.616Z,11.10
2018-04-25T00:49:38.613Z,10.92
2018-04-25T00:50:38.597Z,10.98
2018-04-25T00:51:38.606Z,11.02
2018-04-25T00:52:38.603Z,10.91
2018-04-25T00:53:38.625Z,10.84
2018-04-25T00:54:38.592Z,10.89
2018-04-25T00:55:38.587Z,10.98
2018-04-25T00:56:38.578Z,11.01
2018-04-25T00:57:38.581Z,10.92
2018-04-25T00:58:38.568Z,10.98
2018-04-25T00:59:38.552Z,10.96
2018-04-25T01:00:38.557Z,10.94
2018-04-25T01:01:38.574Z,11.01
2018-04-25T01:02:38.562Z,10.94
2018-04-25T01:03:38.545Z,10.98
2018-04-25T01:04:38.546Z,10.98
2018-04-25T01:05:38.542Z,10.98
2018-04-25T01:06:38.573Z,10.89
2018-04-25T01:07:38.530Z,11.01
2018-04-25T01:08:38.520Z,10.98
2018-04-25T01:09:38.521Z,10.99
2018-04-25T01:10:38.515Z,11.07
2018-04-25T01:11:38.520Z,11.03
2018-04-25T01:12:38.508Z,11.09
2018-04-25T01:13:38.497Z,11.01
2018-04-25T01:14:38.496Z,11.09
2018-04-25T01:15:38.528Z,11.10
2018-04-25T01:16:38.533Z,11.06
2018-04-25T01:17:38.483Z,10.94
2018-04-25T01:18:38.475Z,11.01
2018-04-25T01:19:38.489Z,10.98
2018-04-25T01:20:38.467Z,10.81
2018-04-25T01:21:38.481Z,10.77
2018-04-25T01:22:38.458Z,10.77
2018-04-25T01:23:38.449Z,10.80
2018-04-25T01:24:38.444Z,10.81
2018-04-25T01:25:38.440Z,10.84
2018-04-25T01:26:38.436Z,10.71
2018-04-25T01:27:38.436Z,10.71
2018-04-25T01:28:38.428Z,10.70
2018-04-25T01:29:38.423Z,10.68
2018-04-25T02:01:49.559Z,10.46
2018-04-25T02:02:49.530Z,10.55
2018-04-25T02:04:42.426Z,10.46
2018-04-25T02:05:42.394Z,10.43
2018-04-25T02:07:35.295Z,10.32
2018-04-25T02:08:35.261Z,10.37
2018-04-25T02:10:28.225Z,10.33
2018-04-25T02:11:28.190Z,10.33
2018-04-25T02:13:21.166Z,10.33
2018-04-25T02:14:21.142Z,10.26
2018-04-25T02:17:05.132Z,10.22
2018-04-25T02:18:05.090Z,10.30
2018-04-25T02:19:58.007Z,10.36
2018-04-25T02:20:57.971Z,10.37
2018-04-25T02:22:50.926Z,10.32
2018-04-25T02:23:50.897Z,10.24
2018-04-25T02:25:43.853Z,10.28
2018-04-25T02:26:43.819Z,10.19
2018-04-25T02:28:36.722Z,10.09
2018-04-25T02:29:36.753Z,10.10
2018-04-25T02:31:29.744Z,9.97
2018-04-25T02:32:29.719Z,9.93
2018-04-25T02:34:22.620Z,9.94
2018-04-25T02:35:22.614Z,9.88
2018-04-25T02:37:15.428Z,9.83
2018-04-25T02:38:15.399Z,9.91
2018-04-25T02:40:08.342Z,9.86
2018-04-25T02:41:08.343Z,9.83
2018-04-25T02:43:01.257Z,9.81
2018-04-25T02:44:01.236Z,9.81
2018-04-25T02:45:54.150Z,9.88
2018-04-25T02:46:54.122Z,9.89
2018-04-25T02:48:47.108Z,9.83
2018-04-25T02:49:47.080Z,9.82
2018-04-25T02:51:40.062Z,9.82
2018-04-25T02:52:40.043Z,9.67
2018-04-25T02:54:32.932Z,9.68
2018-04-25T02:55:32.913Z,9.70
2018-04-25T02:57:25.869Z,9.68
2018-04-25T02:58:25.839Z,9.73
2018-04-25T03:00:18.803Z,9.81
2018-04-25T03:01:18.795Z,9.99
2018-04-25T03:03:11.779Z,10.14
2018-04-25T03:04:11.751Z,10.19
2018-04-25T03:06:04.734Z,10.18
2018-04-25T03:07:04.698Z,10.15
2018-04-25T03:08:57.620Z,10.19
2018-04-25T03:09:57.596Z,10.21
2018-04-25T03:11:50.547Z,10.17
2018-04-25T03:12:50.514Z,10.19
2018-04-25T03:14:43.481Z,10.14
2018-04-25T03:15:43.460Z,10.01
2018-04-25T03:17:36.453Z,9.96
2018-04-25T03:18:36.424Z,9.89
2018-04-25T03:20:29.390Z,9.94
2018-04-25T03:21:29.374Z,9.86
2018-04-25T03:23:22.393Z,9.86
2018-04-25T03:24:22.330Z,9.89
2018-04-25T03:25:22.363Z,9.83
2018-04-25T03:26:22.322Z,9.88
2018-04-25T03:27:22.351Z,9.86
2018-04-25T03:28:22.308Z,9.83
2018-04-25T03:29:22.307Z,9.76
2018-04-25T03:30:22.301Z,9.75
2018-04-25T03:31:22.294Z,9.70
2018-04-25T03:32:22.293Z,9.71
2018-04-25T03:33:22.287Z,9.81
2018-04-25T03:34:22.277Z,9.70
2018-04-25T03:35:22.280Z,9.79
2018-04-25T03:36:22.270Z,9.78
2018-04-25T03:37:22.263Z,9.81
2018-04-25T03:38:22.261Z,9.82
2018-04-25T03:39:22.253Z,9.81
2018-04-25T03:40:22.255Z,9.78
2018-04-25T03:41:22.240Z,9.83
2018-04-25T03:42:22.251Z,9.79
2018-04-25T03:43:22.231Z,9.67
2018-04-25T03:44:22.303Z,9.75
2018-04-25T03:45:22.221Z,9.67
2018-04-25T03:46:22.222Z,9.70
2018-04-25T03:47:22.234Z,9.66
2018-04-25T03:48:22.220Z,9.67
2018-04-25T03:49:22.201Z,9.71
2018-04-25T03:50:22.192Z,9.70
2018-04-25T03:51:22.190Z,9.68
2018-04-25T03:52:22.237Z,9.66
2018-04-25T03:53:22.271Z,9.75
2018-04-25T03:54:22.172Z,9.70
2018-04-25T03:55:22.164Z,9.79
2018-04-25T03:56:22.162Z,9.82
2018-04-25T03:57:22.148Z,9.81
2018-04-25T03:58:22.156Z,9.91
2018-04-25T03:59:22.135Z,9.99
2018-04-25T04:00:22.243Z,10.01
2018-04-25T04:01:22.131Z,10.03
2018-04-25T04:02:22.220Z,9.96
2018-04-25T04:03:22.136Z,9.94
2018-04-25T04:04:22.145Z,10.01
2018-04-25T04:05:22.148Z,10.04
2018-04-25T04:06:22.154Z,10.10
2018-04-25T04:07:22.100Z,10.07
2018-04-25T04:08:22.174Z,10.15
2018-04-25T04:09:22.167Z,10.25
2018-04-25T04:10:22.180Z,10.28
2018-04-25T04:11:22.183Z,10.37
2018-04-25T04:12:22.103Z,10.36
2018-04-25T04:13:22.087Z,10.33
2018-04-25T04:14:22.095Z,10.33
2018-04-25T04:15:22.101Z,10.30
2018-04-25T04:16:22.132Z,10.21
2018-04-25T04:17:22.121Z,10.36
2018-04-25T04:18:22.125Z,10.34
2018-04-25T04:19:22.075Z,10.36
2018-04-25T04:20:22.047Z,10.44
2018-04-25T04:21:22.083Z,10.42
2018-04-25T04:22:22.066Z,10.53
2018-04-25T04:23:22.073Z,10.47
2018-04-25T04:24:22.068Z,10.47
2018-04-25T04:25:22.067Z,10.47
2018-04-25T04:26:22.022Z,10.40
2018-04-25T04:27:22.083Z,10.42
2018-04-25T04:28:22.093Z,10.47
2018-04-25T04:29:22.003Z,10.46
2018-04-25T04:30:21.999Z,10.52
2018-04-25T04:31:22.005Z,10.46
2018-04-25T04:32:22.012Z,10.51
2018-04-25T04:33:22.015Z,10.52
2018-04-25T04:34:21.983Z,10.51
2018-04-25T04:35:22.033Z,10.53
2018-04-25T04:36:21.960Z,10.47
2018-04-25T04:37:22.055Z,10.47
2018-04-25T04:38:22.747Z,10.56
2018-04-25T04:39:21.965Z,10.58
2018-04-25T04:40:21.970Z,10.60
2018-04-25T04:41:21.977Z,10.66
2018-04-25T04:42:21.992Z,10.66
2018-04-25T04:43:22.003Z,10.68
2018-04-25T04:44:21.985Z,10.76
2018-04-25T04:45:22.004Z,10.81
2018-04-25T04:46:22.022Z,10.84
2018-04-25T04:47:22.008Z,10.89
2018-04-25T04:48:21.919Z,10.95
2018-04-25T04:49:21.917Z,10.86
2018-04-25T04:50:21.935Z,11.03
2018-04-25T04:51:21.896Z,11.02
2018-04-25T04:52:21.936Z,11.06
2018-04-25T04:53:21.944Z,11.16
2018-04-25T04:54:21.951Z,11.06
2018-04-25T04:55:21.865Z,11.07
2018-04-25T04:56:21.859Z,11.11
2018-04-25T04:57:21.888Z,11.19
2018-04-25T04:58:21.848Z,11.24
2018-04-25T04:59:21.852Z,11.29
2018-04-25T05:00:21.844Z,11.41
2018-04-25T05:01:21.886Z,11.39
2018-04-25T05:02:21.940Z,11.46
2018-04-25T05:03:21.834Z,11.54
2018-04-25T05:04:21.835Z,11.49
2018-04-25T05:05:21.822Z,11.59
2018-04-25T05:06:21.824Z,11.64
2018-04-25T05:07:21.807Z,11.70
2018-04-25T05:08:21.834Z,11.74
2018-04-25T05:09:21.803Z,11.74
2018-04-25T05:10:21.815Z,11.78
2018-04-25T05:11:21.816Z,11.82
2018-04-25T05:12:21.799Z,11.82
2018-04-25T05:13:21.790Z,11.87
2018-04-25T05:14:21.784Z,11.87
2018-04-25T05:15:21.785Z,11.97
2018-04-25T05:16:21.805Z,12.04
2018-04-25T05:17:21.808Z,12.08
2018-04-25T05:18:21.815Z,12.12
2018-04-25T05:19:21.770Z,12.26
2018-04-25T05:20:21.770Z,12.30
2018-04-25T05:21:21.835Z,12.31
2018-04-25T05:22:21.780Z,12.41
2018-04-25T05:23:21.838Z,12.34
2018-04-25T05:24:21.836Z,12.52
2018-04-25T05:25:21.752Z,12.49
2018-04-25T05:26:21.766Z,12.52
2018-04-25T05:27:21.741Z,12.63
2018-04-25T05:28:21.736Z,12.74
2018-04-25T05:29:21.744Z,12.75
2018-04-25T05:30:21.749Z,12.88
2018-04-25T05:31:21.735Z,13.00
2018-04-25T05:32:21.811Z,12.99
2018-04-25T05:33:21.752Z,13.14
2018-04-25T05:34:21.755Z,13.21
2018-04-25T05:35:21.713Z,13.27
2018-04-25T05:36:21.724Z,13.27
2018-04-25T05:37:21.741Z,13.37
2018-04-25T05:38:21.701Z,13.38
2018-04-25T05:39:21.709Z,13.38
2018-04-25T05:40:21.709Z,13.54
2018-04-25T05:41:21.699Z,13.59
2018-04-25T05:42:21.692Z,13.65
2018-04-25T05:43:21.693Z,13.63
2018-04-25T05:44:21.744Z,13.80
2018-04-25T05:45:21.682Z,13.77
2018-04-25T05:46:21.699Z,13.81
2018-04-25T05:47:21.698Z,13.94
2018-04-25T05:48:21.678Z,14.07
2018-04-25T05:49:21.696Z,14.10
2018-04-25T05:50:21.685Z,14.24
2018-04-25T05:51:21.666Z,14.20
2018-04-25T05:52:21.719Z,14.29
2018-04-25T05:53:21.698Z,14.38
2018-04-25T05:54:21.713Z,14.46
2018-04-25T05:55:21.671Z,14.52
2018-04-25T05:56:21.653Z,14.68
2018-04-25T05:57:21.658Z,14.74
2018-04-25T05:58:21.648Z,14.72
2018-04-25T05:59:21.652Z,14.74
2018-04-25T06:00:21.645Z,14.74
2018-04-25T06:01:21.648Z,14.88
2018-04-25T06:02:21.639Z,14.90
2018-04-25T06:03:21.641Z,14.94
2018-04-25T06:04:21.701Z,14.99
2018-04-25T06:05:21.633Z,15.12
2018-04-25T06:06:21.636Z,15.09
2018-04-25T06:07:21.635Z,15.26
2018-04-25T06:08:21.644Z,15.24
2018-04-25T06:09:21.622Z,15.26
2018-04-25T06:10:21.626Z,15.23
2018-04-25T06:11:21.635Z,15.30
2018-04-25T06:12:21.667Z,15.38
2018-04-25T06:13:21.623Z,15.46
2018-04-25T06:14:21.622Z,15.46
2018-04-25T06:15:21.622Z,15.64
2018-04-25T06:16:21.664Z,15.81
2018-04-25T06:17:21.683Z,15.89
2018-04-25T06:18:21.610Z,15.82
2018-04-25T06:19:21.607Z,15.86
2018-04-25T06:20:21.698Z,15.84
2018-04-25T06:21:21.611Z,15.60
2018-04-25T06:22:21.625Z,15.68
2018-04-25T06:23:21.622Z,16.14
2018-04-25T06:24:21.607Z,16.33
2018-04-25T06:25:21.609Z,16.06
2018-04-25T06:26:21.603Z,16.11
2018-04-25T06:27:21.603Z,16.20
2018-04-25T06:28:21.601Z,16.25
2018-04-25T06:29:21.614Z,16.11
2018-04-25T06:30:21.599Z,16.16
2018-04-25T06:31:21.597Z,16.41
2018-04-25T06:32:21.676Z,16.44
2018-04-25T06:33:21.693Z,16.33
2018-04-25T06:34:21.591Z,16.12
2018-04-25T06:35:21.612Z,16.11
2018-04-25T06:36:21.595Z,15.97
2018-04-25T06:37:21.641Z,16.35
2018-04-25T06:38:21.590Z,16.50
2018-04-25T06:39:21.659Z,16.52
2018-04-25T06:40:21.590Z,16.71
2018-04-25T06:41:21.586Z,16.89
2018-04-25T06:42:21.593Z,16.96
2018-04-25T06:43:21.588Z,17.08
2018-04-25T06:44:21.578Z,17.17
2018-04-25T06:45:21.624Z,17.50
2018-04-25T06:46:21.626Z,17.53
2018-04-25T06:47:21.611Z,17.74
2018-04-25T06:48:21.579Z,17.78
2018-04-25T06:49:21.579Z,17.36
2018-04-25T06:50:21.577Z,17.62
2018-04-25T06:51:21.585Z,17.74
2018-04-25T06:52:21.606Z,18.22
2018-04-25T06:53:21.616Z,18.64
2018-04-25T06:54:21.596Z,18.33
2018-04-25T06:55:21.628Z,18.65
2018-04-25T06:56:21.637Z,19.11
2018-04-25T06:57:21.579Z,19.24
2018-04-25T06:58:21.581Z,19.25
2018-04-25T06:59:21.606Z,19.24
2018-04-25T07:00:21.582Z,18.98
2018-04-25T07:01:21.583Z,19.23
2018-04-25T07:02:21.584Z,19.25
2018-04-25T07:03:21.581Z,19.14
2018-04-25T07:04:21.603Z,19.25
2018-04-25T07:05:21.584Z,19.28
2018-04-25T07:06:21.580Z,19.61
2018-04-25T07:07:21.589Z,19.69
2018-04-25T07:08:21.584Z,19.51
2018-04-25T07:09:21.587Z,19.60
2018-04-25T07:10:21.590Z,19.79
2018-04-25T07:11:21.589Z,19.95
2018-04-25T07:12:21.590Z,19.80
2018-04-25T07:13:21.600Z,19.98
2018-04-25T07:14:21.592Z,20.13
2018-04-25T07:15:21.596Z,20.00
2018-04-25T07:16:21.660Z,20.30
2018-04-25T07:17:21.661Z,20.41
2018-04-25T07:18:21.598Z,20.76
2018-04-25T07:19:21.598Z,20.91
2018-04-25T07:20:21.604Z,21.14
2018-04-25T07:21:21.609Z,21.48
2018-04-25T07:22:21.690Z,21.81
2018-04-25T07:23:21.628Z,21.91
2018-04-25T07:24:21.610Z,21.44
2018-04-25T07:25:21.614Z,21.02
2018-04-25T07:26:21.624Z,21.24
2018-04-25T07:27:21.627Z,21.50
2018-04-25T07:28:21.637Z,21.57
2018-04-25T07:29:21.640Z,21.41
2018-04-25T07:30:21.668Z,21.97
2018-04-25T07:31:21.653Z,22.19
2018-04-25T07:32:21.691Z,22.87
2018-04-25T07:33:21.673Z,23.02
2018-04-25T07:34:21.677Z,22.78
2018-04-25T07:35:21.733Z,23.15
2018-04-25T07:36:21.693Z,23.24
2018-04-25T07:37:21.704Z,23.26
2018-04-25T07:38:21.724Z,23.64
2018-04-25T07:39:21.725Z,23.61
2018-04-25T07:40:21.732Z,24.32
2018-04-25T07:41:21.733Z,23.05
2018-04-25T07:42:21.748Z,21.98
2018-04-25T07:43:21.753Z,21.81
2018-04-25T07:44:21.768Z,21.63
2018-04-25T07:45:21.775Z,21.56
2018-04-25T07:46:21.860Z,21.51
2018-04-25T07:47:21.858Z,21.42
2018-04-25T07:48:21.795Z,21.36
2018-04-25T07:49:21.803Z,21.29
2018-04-25T07:50:21.811Z,21.08
2018-04-25T07:51:21.826Z,20.93
2018-04-25T07:52:21.951Z,20.86
2018-04-25T07:53:21.905Z,21.35
2018-04-25T07:54:21.841Z,22.52
2018-04-25T07:55:21.839Z,23.46
2018-04-25T07:56:21.849Z,24.02
2018-04-25T07:57:21.861Z,23.79
2018-04-25T07:58:21.863Z,24.53
2018-04-25T07:59:21.873Z,23.95
2018-04-25T08:00:21.882Z,23.77
2018-04-25T08:01:21.886Z,24.27
2018-04-25T08:02:21.895Z,24.98
2018-04-25T08:03:21.965Z,25.12
2018-04-25T08:04:21.917Z,25.53
2018-04-25T08:05:21.938Z,25.61
2018-04-25T08:06:21.939Z,25.62
2018-04-25T08:07:21.949Z,25.72
2018-04-25T08:08:21.955Z,25.77
2018-04-25T08:09:21.970Z,25.84
2018-04-25T08:10:21.977Z,26.08
2018-04-25T08:11:21.997Z,25.84
2018-04-25T08:12:22.042Z,25.69
2018-04-25T08:13:22.019Z,25.89
2018-04-25T08:14:22.022Z,25.68
2018-04-25T08:15:22.038Z,26.18
2018-04-25T08:16:22.084Z,26.37
2018-04-25T08:17:22.085Z,26.98
2018-04-25T08:18:22.104Z,26.98
2018-04-25T08:19:22.093Z,26.69
2018-04-25T08:20:22.108Z,27.24
2018-04-25T08:21:22.117Z,26.81
2018-04-25T08:22:22.190Z,27.19
2018-04-25T08:23:22.159Z,27.04
2018-04-25T08:24:22.158Z,27.47
2018-04-25T08:25:22.177Z,27.35
2018-04-25T08:26:22.190Z,27.88
2018-04-25T08:27:22.208Z,28.23
2018-04-25T08:28:22.217Z,28.58
2018-04-25T08:29:22.233Z,28.21
2018-04-25T08:30:22.252Z,27.64
2018-04-25T08:31:22.268Z,27.48
2018-04-25T08:32:22.290Z,28.22
2018-04-25T08:33:22.301Z,27.53
2018-04-25T08:34:22.346Z,27.96
2018-04-25T08:35:22.389Z,27.86
2018-04-25T08:36:22.341Z,28.43
2018-04-25T08:37:22.367Z,26.67
2018-04-25T08:38:22.384Z,27.05
2018-04-25T08:39:22.389Z,27.41
2018-04-25T08:40:22.412Z,27.89
2018-04-25T08:41:22.426Z,27.70
2018-04-25T08:42:22.445Z,26.77
2018-04-25T08:43:22.456Z,26.74
2018-04-25T08:44:22.474Z,27.32
2018-04-25T08:45:22.489Z,27.62
2018-04-25T08:46:22.521Z,28.26
2018-04-25T08:47:22.564Z,28.56
2018-04-25T08:48:22.541Z,28.44
2018-04-25T08:49:22.549Z,28.29
2018-04-25T08:50:22.579Z,28.36
2018-04-25T08:51:22.589Z,28.63
2018-04-25T08:52:22.624Z,28.90
2018-04-25T08:53:22.700Z,29.28
2018-04-25T08:54:22.636Z,29.68
2018-04-25T08:55:22.664Z,29.82
2018-04-25T08:56:22.677Z,29.60
2018-04-25T08:57:22.689Z,28.95
2018-04-25T08:58:22.714Z,28.68
2018-04-25T08:59:22.726Z,28.41
2018-04-25T09:00:22.743Z,28.51
2018-04-25T09:01:22.760Z,28.68
2018-04-25T09:02:22.775Z,28.84
2018-04-25T09:03:22.797Z,29.35
2018-04-25T09:04:22.812Z,29.40
2018-04-25T09:05:22.834Z,29.57
2018-04-25T09:06:22.848Z,29.31
2018-04-25T09:07:22.861Z,29.25
2018-04-25T09:08:22.884Z,29.65
2018-04-25T09:09:22.900Z,29.60
2018-04-25T09:10:22.922Z,29.50
2018-04-25T09:11:22.934Z,29.84
2018-04-25T09:12:22.946Z,30.50
2018-04-25T09:13:22.981Z,29.89
2018-04-25T09:14:22.992Z,29.50
2018-04-25T09:15:23.011Z,29.13
2018-04-25T09:16:23.042Z,29.08
2018-04-25T09:17:23.076Z,28.81
2018-04-25T09:18:23.070Z,28.73
2018-04-25T09:19:23.084Z,28.63
2018-04-25T09:20:23.112Z,28.65
2018-04-25T09:21:23.119Z,28.44
2018-04-25T09:22:23.192Z,28.53
2018-04-25T09:23:23.207Z,28.82
2018-04-25T09:24:23.206Z,29.43
2018-04-25T09:25:23.192Z,28.90
2018-04-25T09:26:23.286Z,28.78
2018-04-25T09:27:23.243Z,29.23
2018-04-25T09:28:23.258Z,29.34
2018-04-25T09:29:23.263Z,28.50
2018-04-25T09:30:23.284Z,28.17
2018-04-25T09:31:23.304Z,27.88
2018-04-25T09:32:23.367Z,28.07
2018-04-25T09:33:23.337Z,28.14
2018-04-25T09:34:23.360Z,28.75
2018-04-25T09:35:23.375Z,28.95
2018-04-25T09:36:23.415Z,29.34
2018-04-25T09:37:23.405Z,29.15
2018-04-25T09:38:23.431Z,28.95
2018-04-25T09:39:23.443Z,28.69
2018-04-25T09:40:23.461Z,28.80
2018-04-25T09:41:23.482Z,29.34
2018-04-25T09:42:23.493Z,29.35
2018-04-25T09:43:23.510Z,29.29
2018-04-25T09:44:23.556Z,28.93
2018-04-25T09:45:23.552Z,29.00
2018-04-25T09:46:23.623Z,28.65
2018-04-25T09:47:23.612Z,28.53
2018-04-25T09:48:23.702Z,28.56
2018-04-25T09:49:23.621Z,28.32
2018-04-25T09:50:23.640Z,28.66
2018-04-25T09:51:23.659Z,29.06
2018-04-25T09:52:23.707Z,29.22
2018-04-25T09:53:23.716Z,28.70
2018-04-25T09:54:23.709Z,28.56
2018-04-25T09:55:23.727Z,28.41
2018-04-25T09:56:23.746Z,28.32
2018-04-25T09:57:23.786Z,28.28
2018-04-25T09:58:23.773Z,28.07
2018-04-25T09:59:23.818Z,28.44
2018-04-25T10:00:23.827Z,28.44
2018-04-25T10:01:23.830Z,28.01
2018-04-25T10:02:23.870Z,28.80
2018-04-25T10:03:23.866Z,28.68
2018-04-25T10:04:23.891Z,28.96
2018-04-25T10:05:23.901Z,29.49
2018-04-25T10:06:23.924Z,29.15
2018-04-25T10:07:23.945Z,28.97
2018-04-25T10:08:23.960Z,28.70
2018-04-25T10:09:23.979Z,28.32
2018-04-25T10:10:23.994Z,28.14
2018-04-25T10:11:24.013Z,28.16
2018-04-25T10:12:24.036Z,27.86
2018-04-25T10:13:24.049Z,28.25
2018-04-25T10:14:24.073Z,27.17
2018-04-25T10:15:24.087Z,27.69
2018-04-25T10:16:24.115Z,27.71
2018-04-25T10:17:24.239Z,27.23
2018-04-25T10:18:24.144Z,28.03
2018-04-25T10:19:24.160Z,28.69
2018-04-25T10:20:24.171Z,28.97
2018-04-25T10:21:24.188Z,29.31
2018-04-25T10:22:24.222Z,29.29
2018-04-25T10:23:24.270Z,29.47
2018-04-25T10:24:24.248Z,29.62
2018-04-25T10:25:24.264Z,29.44
2018-04-25T10:26:24.288Z,29.49
2018-04-25T10:27:24.290Z,29.78
2018-04-25T10:28:24.327Z,29.66
2018-04-25T10:29:24.330Z,29.18
2018-04-25T10:30:24.358Z,28.73
2018-04-25T10:31:24.368Z,27.82
2018-04-25T10:32:24.372Z,27.88
2018-04-25T10:33:24.399Z,28.17
2018-04-25T10:34:24.423Z,28.41
2018-04-25T10:35:24.435Z,28.26
2018-04-25T10:36:24.464Z,28.65
2018-04-25T10:37:24.477Z,28.93
2018-04-25T10:38:24.500Z,29.03
2018-04-25T10:39:24.509Z,29.13
2018-04-25T10:40:24.570Z,28.58
2018-04-25T10:41:24.586Z,28.88
2018-04-25T10:42:24.560Z,28.77
2018-04-25T10:43:24.584Z,28.66
2018-04-25T10:44:24.595Z,28.17
2018-04-25T10:45:24.618Z,28.40
2018-04-25T10:46:24.671Z,28.28
2018-04-25T10:47:24.676Z,28.14
2018-04-25T10:48:24.670Z,28.19
2018-04-25T10:49:24.683Z,28.19
2018-04-25T10:50:24.702Z,28.48
2018-04-25T10:51:24.746Z,28.25
2018-04-25T10:52:24.742Z,28.17
2018-04-25T10:53:24.780Z,28.31
2018-04-25T10:54:24.778Z,28.82
2018-04-25T10:55:24.927Z,29.20
2018-04-25T10:56:24.815Z,28.90
2018-04-25T10:57:24.832Z,29.03
2018-04-25T10:58:24.843Z,29.08
2018-04-25T10:59:24.860Z,29.72
2018-04-25T11:00:24.879Z,30.07
2018-04-25T11:01:24.906Z,29.75
2018-04-25T11:02:24.921Z,29.55
2018-04-25T11:03:24.989Z,29.31
2018-04-25T11:04:25.049Z,28.78
2018-04-25T11:05:25.004Z,29.10
2018-04-25T11:06:24.985Z,28.72
2018-04-25T11:07:25.027Z,28.77
2018-04-25T11:08:25.037Z,28.95
2018-04-25T11:09:25.076Z,29.28
2018-04-25T11:10:25.055Z,29.45
2018-04-25T11:11:25.073Z,29.26
2018-04-25T11:12:25.095Z,29.01
2018-04-25T11:13:25.113Z,28.91
2018-04-25T11:14:25.132Z,29.29
2018-04-25T11:15:25.172Z,29.08
2018-04-25T11:16:25.232Z,28.36
2018-04-25T11:17:25.249Z,28.29
2018-04-25T11:18:25.206Z,28.03
2018-04-25T11:19:25.219Z,28.16
2018-04-25T11:20:25.252Z,28.40
2018-04-25T11:21:25.258Z,28.63
2018-04-25T11:22:25.317Z,28.93
2018-04-25T11:23:25.325Z,28.84
2018-04-25T11:24:25.307Z,29.34
2018-04-25T11:25:25.322Z,29.22
2018-04-25T11:26:25.347Z,29.81
2018-04-25T11:27:25.357Z,29.81
2018-04-25T11:28:25.425Z,29.50
2018-04-25T11:29:25.394Z,29.33
2018-04-25T11:30:25.415Z,28.72
2018-04-25T11:31:25.435Z,27.98
2018-04-25T11:32:25.450Z,28.65
2018-04-25T11:33:25.492Z,28.63
2018-04-25T11:34:25.484Z,29.15
2018-04-25T11:35:25.514Z,29.11
2018-04-25T11:36:25.520Z,29.44
2018-04-25T11:37:25.534Z,29.84
2018-04-25T11:38:25.544Z,29.84
2018-04-25T11:39:25.565Z,29.75
2018-04-25T11:40:25.588Z,29.37
2018-04-25T11:41:25.603Z,29.37
2018-04-25T11:42:25.657Z,29.35
2018-04-25T11:43:25.639Z,29.47
2018-04-25T11:44:25.693Z,29.57
2018-04-25T11:45:25.676Z,29.47
2018-04-25T11:46:25.728Z,29.11
2018-04-25T11:47:25.729Z,28.84
2018-04-25T11:48:25.733Z,29.06
2018-04-25T11:49:25.741Z,27.96
2018-04-25T11:50:25.759Z,28.32
2018-04-25T11:51:25.792Z,28.28
2018-04-25T11:52:25.822Z,28.66
2018-04-25T11:53:25.829Z,29.10
2018-04-25T11:54:25.848Z,29.35
2018-04-25T11:55:25.842Z,29.68
2018-04-25T11:56:25.864Z,29.23
2018-04-25T11:57:25.889Z,29.00
2018-04-25T11:58:25.902Z,29.25
2018-04-25T11:59:25.905Z,29.50
2018-04-25T12:00:25.923Z,29.87
2018-04-25T12:01:25.945Z,29.86
2018-04-25T12:02:25.958Z,29.23
2018-04-25T12:03:25.973Z,29.29
2018-04-25T12:04:26.017Z,29.19
2018-04-25T12:05:26.011Z,29.77
2018-04-25T12:06:26.029Z,29.84
2018-04-25T12:07:26.042Z,29.60
2018-04-25T12:08:26.066Z,29.82
2018-04-25T12:09:26.082Z,30.23
2018-04-25T12:10:26.097Z,29.82
2018-04-25T12:11:26.102Z,29.35
2018-04-25T12:12:26.129Z,28.93
2018-04-25T12:13:26.152Z,28.69
2018-04-25T12:14:26.189Z,28.85
2018-04-25T12:15:26.186Z,29.10
2018-04-25T12:16:26.244Z,29.22
2018-04-25T12:17:26.243Z,28.97
2018-04-25T12:18:26.258Z,28.84
2018-04-25T12:19:26.248Z,28.82
2018-04-25T12:20:26.261Z,28.38
2018-04-25T12:21:26.283Z,27.99
2018-04-25T12:22:26.317Z,27.36
2018-04-25T12:23:26.325Z,26.74
2018-04-25T12:24:26.337Z,26.35
2018-04-25T12:25:26.340Z,26.12
2018-04-25T12:26:26.361Z,25.93
2018-04-25T12:27:26.379Z,25.62
2018-04-25T12:28:26.397Z,25.67
2018-04-25T12:29:26.404Z,25.69
2018-04-25T12:30:26.419Z,25.90
2018-04-25T12:31:26.431Z,25.79
2018-04-25T12:32:26.448Z,25.67
2018-04-25T12:33:26.461Z,25.50
2018-04-25T12:34:26.490Z,25.67
2018-04-25T12:35:26.490Z,25.52
2018-04-25T12:36:26.493Z,25.56
2018-04-25T12:37:26.504Z,25.39
2018-04-25T12:38:26.514Z,25.24
2018-04-25T12:39:26.552Z,24.92
2018-04-25T12:40:26.573Z,24.76
2018-04-25T12:41:26.548Z,24.75
2018-04-25T12:42:26.550Z,24.64
2018-04-25T12:43:26.557Z,24.59
2018-04-25T12:44:26.572Z,24.83
2018-04-25T12:45:26.576Z,24.75
2018-04-25T12:46:26.660Z,24.67
2018-04-25T12:47:26.630Z,24.47
2018-04-25T12:48:26.596Z,24.26
2018-04-25T12:49:26.646Z,24.31
2018-04-25T12:50:26.613Z,24.32
2018-04-25T12:51:26.676Z,24.26
2018-04-25T12:52:26.677Z,24.35
2018-04-25T12:53:26.691Z,24.29
2018-04-25T12:54:26.643Z,24.32
2018-04-25T12:55:26.644Z,24.32
2018-04-25T12:56:26.647Z,24.47
2018-04-25T12:57:26.657Z,24.59
2018-04-25T12:58:26.659Z,24.63
2018-04-25T12:59:26.663Z,24.60
2018-04-25T13:00:26.674Z,24.71
2018-04-25T13:01:26.681Z,24.64
2018-04-25T13:02:26.683Z,24.79
2018-04-25T13:03:26.681Z,24.64
2018-04-25T13:04:26.691Z,24.54
2018-04-25T13:05:26.766Z,24.60
2018-04-25T13:06:26.699Z,24.47
2018-04-25T13:07:26.716Z,24.31
2018-04-25T13:08:26.707Z,24.38
2018-04-25T13:09:26.710Z,24.31
2018-04-25T13:10:26.727Z,24.29
2018-04-25T13:11:26.737Z,24.31
2018-04-25T13:12:26.717Z,24.41
2018-04-25T13:13:26.726Z,24.31
2018-04-25T13:14:26.734Z,24.34
2018-04-25T13:15:26.747Z,24.22
2018-04-25T13:16:26.774Z,24.12
2018-04-25T13:17:26.778Z,24.22
2018-04-25T13:18:26.752Z,24.52
2018-04-25T13:19:26.755Z,24.61
2018-04-25T13:20:26.760Z,24.61
2018-04-25T13:21:26.844Z,24.73
2018-04-25T13:22:26.783Z,24.69
2018-04-25T13:23:26.791Z,24.57
2018-04-25T13:24:26.773Z,24.53
2018-04-25T13:25:26.924Z,24.54
2018-04-25T13:26:26.787Z,24.34
2018-04-25T13:27:26.789Z,24.20
2018-04-25T13:28:26.789Z,24.02
2018-04-25T13:29:26.800Z,24.04
2018-04-25T13:30:26.836Z,24.07
2018-04-25T13:31:26.857Z,23.92
2018-04-25T13:32:26.807Z,24.02
2018-04-25T13:33:26.855Z,24.04
2018-04-25T13:34:26.820Z,24.00
2018-04-25T13:35:26.821Z,24.08
2018-04-25T13:36:26.825Z,24.17
2018-04-25T13:37:26.830Z,23.95
2018-04-25T13:38:26.832Z,23.97
2018-04-25T13:39:26.831Z,23.97
2018-04-25T13:40:26.838Z,24.08
2018-04-25T13:41:26.845Z,23.94
2018-04-25T13:42:26.849Z,23.92
2018-04-25T13:43:26.855Z,23.94
2018-04-25T13:44:26.852Z,24.01
2018-04-25T13:45:26.881Z,24.01
2018-04-25T13:46:26.889Z,23.98
2018-04-25T13:47:26.873Z,24.04
2018-04-25T13:48:26.873Z,24.04
2018-04-25T13:49:26.872Z,24.08
2018-04-25T13:50:26.873Z,23.86
2018-04-25T13:51:26.874Z,23.82